Time;durP1;ratioP1;P1;durP2;ratioP2;P2;SDS_P1;SDS_P2;PMS_P1;PMS_P2;Temp;Humidity;BMP_temperature;BMP_pressure;BME280_temperature;BME280_humidity;BME280_pressure;Samples;Min_cycle;Max_cycle;Signal;HPM_P1;HPM_P2
2023/12/27 00:00:34;;;;;;;20.00;15.05;;;;;;;-1.62;100.00;96693.91;5089354;28;20043;-65
2023/12/27 00:03:00;;;;;;;17.10;13.65;;;;;;;-1.65;100.00;96699.16;5089496;28;20024;-64
2023/12/27 00:05:25;;;;;;;19.50;14.38;;;;;;;-1.68;100.00;96696.63;5088320;28;20054;-65
2023/12/27 00:07:50;;;;;;;20.83;14.20;;;;;;;-1.68;100.00;96691.47;5085981;28;20020;-64
2023/12/27 00:10:16;;;;;;;21.73;13.68;;;;;;;-1.69;100.00;96689.78;5090607;28;20291;-64
2023/12/27 00:12:41;;;;;;;17.58;12.80;;;;;;;-1.71;100.00;96689.84;5088428;28;20070;-64
2023/12/27 00:15:07;;;;;;;16.50;13.00;;;;;;;-1.73;100.00;96695.03;5087775;28;20074;-64
2023/12/27 00:17:33;;;;;;;20.15;13.20;;;;;;;-1.75;100.00;96703.72;5086251;28;20024;-64
2023/12/27 00:19:58;;;;;;;15.98;12.23;;;;;;;-1.78;100.00;96704.63;5085950;28;20040;-64
2023/12/27 00:22:24;;;;;;;16.55;12.75;;;;;;;-1.81;100.00;96712.47;5088236;28;20083;-64
2023/12/27 00:24:49;;;;;;;20.80;12.00;;;;;;;-1.89;100.00;96711.81;5087091;28;20103;-65
2023/12/27 00:27:15;;;;;;;11.95;10.57;;;;;;;-1.85;100.00;96703.13;5085056;28;20028;-64
2023/12/27 00:29:40;;;;;;;12.68;11.38;;;;;;;-1.79;100.00;96713.28;5082536;28;20029;-64
2023/12/27 00:32:09;;;;;;;12.65;10.02;;;;;;;-1.79;100.00;96708.13;5083866;28;20028;-65
2023/12/27 00:34:38;;;;;;;13.30;10.88;;;;;;;-1.68;100.00;96718.16;5082093;28;20032;-65
2023/12/27 00:37:05;;;;;;;15.13;10.98;;;;;;;-1.65;100.00;96710.31;5088803;28;20032;-64
2023/12/27 00:39:31;;;;;;;16.67;10.75;;;;;;;-1.71;100.00;96714.78;5083071;28;20108;-64
2023/12/27 00:41:56;;;;;;;16.52;12.02;;;;;;;-1.74;100.00;96711.41;5085840;28;20061;-64
2023/12/27 00:44:22;;;;;;;14.73;12.32;;;;;;;-1.70;100.00;96713.91;5087307;28;20036;-64
2023/12/27 00:46:47;;;;;;;15.05;11.63;;;;;;;-1.63;100.00;96707.72;5083157;28;20036;-64
2023/12/27 00:49:13;;;;;;;13.15;10.23;;;;;;;-1.57;100.00;96707.53;5088434;28;20039;-64
2023/12/27 00:51:39;;;;;;;17.55;11.13;;;;;;;-1.60;100.00;96710.19;5085226;28;20541;-65
2023/12/27 00:54:04;;;;;;;11.30;10.05;;;;;;;-1.66;100.00;96705.19;5085621;28;20027;-65
2023/12/27 00:56:30;;;;;;;15.43;11.20;;;;;;;-1.71;100.00;96709.63;5079632;28;20028;-65
2023/12/27 00:58:55;;;;;;;13.30;11.65;;;;;;;-1.73;100.00;96705.34;5085016;28;20047;-64
2023/12/27 01:01:20;;;;;;;16.42;11.18;;;;;;;-1.71;100.00;96717.38;5082721;28;20571;-64
2023/12/27 01:03:46;;;;;;;14.00;10.90;;;;;;;-1.72;100.00;96711.38;5088730;28;20032;-64
2023/12/27 01:06:11;;;;;;;19.92;11.85;;;;;;;-1.64;100.00;96713.75;5080290;28;20481;-65
2023/12/27 01:08:37;;;;;;;14.25;11.85;;;;;;;-1.69;100.00;96713.00;5082808;28;20028;-64
2023/12/27 01:11:03;;;;;;;16.35;12.30;;;;;;;-1.69;100.00;96718.19;5079509;28;20026;-64
2023/12/27 01:13:28;;;;;;;15.13;11.82;;;;;;;-1.68;100.00;96717.28;5086232;28;20023;-64
2023/12/27 01:15:54;;;;;;;21.45;14.27;;;;;;;-1.68;100.00;96710.41;5078888;28;20073;-64
2023/12/27 01:18:20;;;;;;;15.18;11.05;;;;;;;-1.66;100.00;96715.50;5084808;28;20063;-64
2023/12/27 01:20:46;;;;;;;15.63;10.63;;;;;;;-1.63;100.00;96721.44;5082599;28;20055;-64
2023/12/27 01:23:12;;;;;;;15.82;10.65;;;;;;;-1.69;100.00;96719.03;5082056;28;20036;-64
2023/12/27 01:25:38;;;;;;;12.88;10.32;;;;;;;-1.71;100.00;96725.13;5084898;28;20020;-65
2023/12/27 01:28:03;;;;;;;19.77;14.38;;;;;;;-1.77;100.00;96720.97;5079792;28;20058;-65
2023/12/27 01:30:29;;;;;;;22.08;14.88;;;;;;;-1.78;100.00;96719.28;5085679;28;20031;-64
2023/12/27 01:32:55;;;;;;;17.52;12.48;;;;;;;-1.79;100.00;96715.84;5086618;28;20469;-64
2023/12/27 01:35:20;;;;;;;15.75;11.35;;;;;;;-1.77;100.00;96710.63;5082116;28;20059;-64
2023/12/27 01:37:46;;;;;;;17.95;12.85;;;;;;;-1.78;100.00;96704.63;5090631;28;20055;-65
2023/12/27 01:40:11;;;;;;;15.93;11.38;;;;;;;-1.79;100.00;96702.94;5088961;28;20024;-65
2023/12/27 01:42:38;;;;;;;15.88;10.18;;;;;;;-1.77;100.00;96708.06;5088454;28;20140;-64
2023/12/27 01:45:05;;;;;;;12.32;9.85;;;;;;;-1.79;100.00;96709.84;5090341;28;20051;-64
2023/12/27 01:47:33;;;;;;;19.17;11.75;;;;;;;-1.81;100.00;96716.78;5091947;28;20610;-65
2023/12/27 01:49:58;;;;;;;13.30;10.02;;;;;;;-1.86;100.00;96706.59;5089626;28;20396;-65
2023/12/27 01:52:24;;;;;;;16.17;9.70;;;;;;;-1.87;100.00;96710.91;5087963;28;20036;-65
2023/12/27 01:54:50;;;;;;;13.57;9.73;;;;;;;-1.87;100.00;96721.22;5092175;28;20032;-65
2023/12/27 01:57:15;;;;;;;10.65;9.18;;;;;;;-1.88;100.00;96721.25;5088870;28;20513;-65
2023/12/27 01:59:41;;;;;;;14.13;9.77;;;;;;;-1.90;100.00;96717.88;5087948;28;20071;-64
2023/12/27 02:02:07;;;;;;;17.00;9.85;;;;;;;-1.92;100.00;96722.22;5093968;28;20050;-64
2023/12/27 02:04:32;;;;;;;15.40;9.27;;;;;;;-1.96;100.00;96716.31;5091614;28;20032;-64
2023/12/27 02:06:59;;;;;;;15.20;9.90;;;;;;;-1.95;100.00;96722.31;5089724;28;20511;-64
2023/12/27 02:09:24;;;;;;;13.00;10.35;;;;;;;-1.94;100.00;96714.53;5084601;28;20032;-65
2023/12/27 02:11:50;;;;;;;16.95;9.93;;;;;;;-1.94;100.00;96714.53;5071565;28;20034;-64
2023/12/27 02:14:15;;;;;;;12.85;8.75;;;;;;;-1.97;100.00;96713.75;5089362;28;20024;-64
2023/12/27 02:16:42;;;;;;;12.77;9.60;;;;;;;-2.01;100.00;96715.56;5084842;28;20043;-65
2023/12/27 02:19:12;;;;;;;15.10;10.57;;;;;;;-2.10;100.00;96714.09;5090046;28;20043;-65
2023/12/27 02:21:40;;;;;;;15.05;9.45;;;;;;;-2.09;100.00;96710.63;5085179;28;20060;-64
2023/12/27 02:24:08;;;;;;;15.02;8.88;;;;;;;-2.10;100.00;96701.19;5081150;28;20082;-65
2023/12/27 02:26:33;;;;;;;14.13;8.90;;;;;;;-2.09;100.00;96694.28;5079736;28;20033;-65
2023/12/27 02:28:59;;;;;;;11.50;8.20;;;;;;;-2.11;100.00;96689.13;5090742;28;20081;-64
2023/12/27 02:31:24;;;;;;;9.93;7.22;;;;;;;-2.11;100.00;96681.41;5083040;28;20038;-65
2023/12/27 02:33:49;;;;;;;8.55;6.80;;;;;;;-2.11;100.00;96678.00;5093789;28;20038;-64
2023/12/27 02:36:15;;;;;;;7.30;6.45;;;;;;;-2.07;100.00;96670.13;5088988;28;20180;-65
2023/12/27 02:38:40;;;;;;;8.07;6.40;;;;;;;-2.05;100.00;96673.50;5084815;28;20123;-65
2023/12/27 02:41:05;;;;;;;13.50;7.22;;;;;;;-2.08;100.00;96665.84;5088177;28;20049;-65
2023/12/27 02:43:31;;;;;;;8.05;6.50;;;;;;;-2.08;100.00;96660.69;5089326;28;20020;-65
2023/12/27 02:45:57;;;;;;;9.00;7.30;;;;;;;-2.12;100.00;96658.22;5087579;28;20029;-64
2023/12/27 02:48:22;;;;;;;14.35;7.85;;;;;;;-2.12;100.00;96658.22;5084591;28;20032;-64
2023/12/27 02:50:48;;;;;;;8.93;6.82;;;;;;;-2.16;100.00;96660.91;5083423;28;20048;-64
2023/12/27 02:53:13;;;;;;;7.25;6.53;;;;;;;-2.16;100.00;96657.47;5083290;28;20430;-65
2023/12/27 02:55:38;;;;;;;8.80;6.97;;;;;;;-2.22;100.00;96658.44;5083451;28;20024;-65
2023/12/27 02:58:04;;;;;;;6.80;6.13;;;;;;;-2.23;100.00;96661.09;5093667;28;20842;-64
2023/12/27 03:00:35;;;;;;;7.78;6.07;;;;;;;-2.18;100.00;96659.22;5085295;28;20027;-64
2023/12/27 03:03:02;;;;;;;8.13;6.53;;;;;;;-2.24;100.00;96659.41;5086012;28;20101;-64
2023/12/27 03:05:27;;;;;;;8.25;6.32;;;;;;;-2.27;100.00;96659.47;5084709;28;20029;-64
2023/12/27 03:07:53;;;;;;;7.00;5.60;;;;;;;-2.27;100.00;96659.47;5089952;28;20157;-64
2023/12/27 03:10:18;;;;;;;9.30;6.10;;;;;;;-2.26;100.00;96658.59;5084104;28;20420;-64
2023/12/27 03:12:43;;;;;;;6.78;5.70;;;;;;;-2.32;100.00;96652.72;5085977;28;20484;-65
2023/12/27 03:15:09;;;;;;;7.57;5.72;;;;;;;-2.32;100.00;96652.72;5085429;28;20427;-64
2023/12/27 03:17:34;;;;;;;7.47;6.43;;;;;;;-2.32;100.00;96650.13;5090522;28;20059;-64
2023/12/27 03:20:00;;;;;;;6.82;5.80;;;;;;;-2.32;100.00;96652.72;5085256;28;20443;-64
2023/12/27 03:22:25;;;;;;;7.80;5.75;;;;;;;-2.35;100.00;96659.66;5083755;28;20036;-64
2023/12/27 03:24:51;;;;;;;7.88;6.18;;;;;;;-2.39;100.00;96656.31;5087773;28;20504;-65
2023/12/27 03:27:16;;;;;;;8.32;6.25;;;;;;;-2.36;100.00;96658.81;5083854;28;20032;-65
2023/12/27 03:29:41;;;;;;;7.70;6.03;;;;;;;-2.30;100.00;96655.25;5085350;28;20098;-64
2023/12/27 03:32:07;;;;;;;6.47;5.75;;;;;;;-2.33;100.00;96653.56;5087872;28;20661;-65
2023/12/27 03:34:32;;;;;;;5.65;5.07;;;;;;;-2.22;100.00;96663.63;5084136;28;20021;-64
2023/12/27 03:36:58;;;;;;;6.00;5.40;;;;;;;-2.21;100.00;96651.56;5082418;28;20071;-64
2023/12/27 03:39:23;;;;;;;8.02;5.85;;;;;;;-2.25;100.00;96657.72;5090168;28;20054;-65
2023/12/27 03:41:49;;;;;;;6.40;4.63;;;;;;;-2.26;100.00;96656.00;5086427;28;20119;-65
2023/12/27 03:44:14;;;;;;;5.43;4.93;;;;;;;-2.28;100.00;96657.78;5086715;28;20028;-64
2023/12/27 03:46:39;;;;;;;6.18;5.13;;;;;;;-2.32;100.00;96655.28;5085609;28;20032;-65
2023/12/27 03:49:05;;;;;;;11.80;6.90;;;;;;;-2.32;100.00;96662.16;5089153;28;20043;-64
2023/12/27 03:51:30;;;;;;;10.90;6.90;;;;;;;-2.38;100.00;96662.34;5080926;28;20081;-65
2023/12/27 03:53:56;;;;;;;12.85;7.60;;;;;;;-2.41;100.00;96660.66;5086360;28;20032;-65
2023/12/27 03:56:21;;;;;;;12.35;7.30;;;;;;;-2.38;100.00;96658.00;5081663;28;20098;-64
2023/12/27 03:58:47;;;;;;;15.50;8.70;;;;;;;-2.34;100.00;96654.47;5091101;28;20076;-65
2023/12/27 04:01:12;;;;;;;14.75;7.50;;;;;;;-2.31;100.00;96658.69;5082475;28;20024;-64
2023/12/27 04:03:40;;;;;;;13.07;8.15;;;;;;;-2.29;100.00;96654.34;5082785;28;20519;-64
2023/12/27 04:06:05;;;;;;;15.45;7.85;;;;;;;-2.30;100.00;96655.25;5081476;28;20039;-64
2023/12/27 04:08:31;;;;;;;11.88;7.47;;;;;;;-2.32;100.00;96659.59;5079568;28;20375;-65
2023/12/27 04:10:56;;;;;;;15.40;10.60;;;;;;;-2.34;100.00;96654.47;5082823;28;20057;-64
2023/12/27 04:13:22;;;;;;;17.98;10.90;;;;;;;-2.34;100.00;96651.88;5081112;28;20071;-64
2023/12/27 04:15:47;;;;;;;17.73;10.05;;;;;;;-2.34;100.00;96644.13;5087588;28;20475;-64
2023/12/27 04:18:12;;;;;;;16.98;9.45;;;;;;;-2.27;100.00;96644.00;5086004;28;20047;-64
2023/12/27 04:20:38;;;;;;;17.00;8.60;;;;;;;-2.25;100.00;96645.63;5083924;28;20101;-64
2023/12/27 04:23:03;;;;;;;14.02;8.18;;;;;;;-2.26;100.00;96649.09;5088489;28;20074;-64
2023/12/27 04:25:29;;;;;;;14.75;8.60;;;;;;;-2.31;100.00;96656.13;5092806;28;20268;-64
2023/12/27 04:27:54;;;;;;;16.52;9.98;;;;;;;-2.35;100.00;96657.91;5087582;28;20055;-64
2023/12/27 04:30:19;;;;;;;13.27;7.90;;;;;;;-2.39;100.00;96661.47;5086131;28;20067;-64
2023/12/27 04:32:45;;;;;;;15.43;7.43;;;;;;;-2.38;100.00;96663.16;5086738;28;20028;-64
2023/12/27 04:35:11;;;;;;;10.90;6.43;;;;;;;-2.35;100.00;96660.50;5082488;28;20026;-64
2023/12/27 04:37:36;;;;;;;12.32;6.35;;;;;;;-2.32;100.00;96651.84;5086850;28;20036;-65
2023/12/27 04:40:02;;;;;;;9.30;5.05;;;;;;;-2.29;100.00;96645.78;5090352;28;20035;-64
2023/12/27 04:42:27;;;;;;;7.95;5.78;;;;;;;-2.32;100.00;96642.41;5086009;28;20063;-64
2023/12/27 04:44:52;;;;;;;13.93;6.10;;;;;;;-2.38;100.00;96636.53;5080027;28;20633;-64
2023/12/27 04:47:18;;;;;;;6.82;5.28;;;;;;;-2.42;100.00;96640.91;5079704;28;20031;-64
2023/12/27 04:49:43;;;;;;;7.38;4.80;;;;;;;-2.43;100.00;96641.81;5081363;28;20066;-65
2023/12/27 04:52:09;;;;;;;8.02;5.32;;;;;;;-2.43;100.00;96639.22;5084112;28;20028;-65
2023/12/27 04:54:34;;;;;;;7.97;4.63;;;;;;;-2.41;100.00;96642.63;5091638;28;20040;-64
2023/12/27 04:56:59;;;;;;;8.40;4.60;;;;;;;-2.41;100.00;96647.78;5086890;28;20060;-64
2023/12/27 04:59:25;;;;;;;4.60;3.78;;;;;;;-2.41;100.00;96645.19;5084541;28;20235;-65
2023/12/27 05:01:50;;;;;;;11.40;7.40;;;;;;;-2.39;100.00;96646.00;5090485;28;20020;-65
2023/12/27 05:04:16;;;;;;;8.48;7.13;;;;;;;-2.38;100.00;96652.84;5089625;28;20059;-65
2023/12/27 05:06:41;;;;;;;13.02;7.47;;;;;;;-2.38;100.00;96654.59;5085848;28;20773;-64
2023/12/27 05:09:07;;;;;;;16.33;10.00;;;;;;;-2.40;100.00;96659.78;5088224;28;20024;-64
2023/12/27 05:11:32;;;;;;;13.50;8.63;;;;;;;-2.43;100.00;96665.03;5091426;28;20035;-64
2023/12/27 05:13:58;;;;;;;11.02;7.22;;;;;;;-2.46;100.00;96668.50;5090682;28;20032;-64
2023/12/27 05:16:23;;;;;;;6.63;5.60;;;;;;;-2.47;100.00;96673.72;5090451;28;20024;-65
2023/12/27 05:18:49;;;;;;;6.80;5.68;;;;;;;-2.46;100.00;96671.09;5092927;28;20024;-65
2023/12/27 05:21:18;;;;;;;7.22;5.50;;;;;;;-2.49;100.00;96673.75;5087481;28;20020;-64
2023/12/27 05:23:43;;;;;;;6.68;5.28;;;;;;;-2.48;100.00;96666.88;5093017;28;20032;-64
2023/12/27 05:26:09;;;;;;;7.43;5.38;;;;;;;-2.52;100.00;96671.25;5086342;28;20039;-65
2023/12/27 05:28:34;;;;;;;5.43;4.93;;;;;;;-2.53;100.00;96669.56;5089154;28;20040;-64
2023/12/27 05:31:00;;;;;;;6.40;4.80;;;;;;;-2.50;100.00;96668.66;5079239;28;20024;-65
2023/12/27 05:33:26;;;;;;;7.60;5.57;;;;;;;-2.50;100.00;96664.31;5088896;28;20034;-64
2023/12/27 05:35:51;;;;;;;7.63;5.78;;;;;;;-2.52;100.00;96662.69;5091807;28;20024;-64
2023/12/27 05:38:17;;;;;;;9.38;5.30;;;;;;;-2.53;100.00;96654.09;5090035;28;20048;-64
2023/12/27 05:40:42;;;;;;;5.15;4.68;;;;;;;-2.53;100.00;96658.41;5084544;28;20027;-64
2023/12/27 05:43:08;;;;;;;8.52;5.28;;;;;;;-2.54;100.00;96648.94;5082993;28;20086;-64
2023/12/27 05:45:33;;;;;;;7.60;5.53;;;;;;;-2.53;100.00;96646.34;5093127;28;20389;-65
2023/12/27 05:47:59;;;;;;;6.70;4.40;;;;;;;-2.55;100.00;96650.69;5084065;28;20040;-64
2023/12/27 05:50:24;;;;;;;10.02;6.25;;;;;;;-2.60;100.00;96652.56;5088291;28;20028;-64
2023/12/27 05:52:49;;;;;;;8.10;6.07;;;;;;;-2.60;100.00;96653.38;5088445;28;20028;-65
2023/12/27 05:55:15;;;;;;;9.85;6.13;;;;;;;-2.61;100.00;96666.34;5086081;28;20032;-65
2023/12/27 05:57:41;;;;;;;10.38;7.18;;;;;;;-2.63;100.00;96660.38;5083548;28;20025;-65
2023/12/27 06:00:07;;;;;;;13.50;7.40;;;;;;;-2.62;100.00;96659.47;5093506;28;20008;-64
2023/12/27 06:02:33;;;;;;;8.80;6.70;;;;;;;-2.64;100.00;96664.66;5085321;28;20020;-64
2023/12/27 06:04:58;;;;;;;10.27;7.60;;;;;;;-2.64;100.00;96661.25;5094013;28;20026;-64
2023/12/27 06:07:24;;;;;;;8.80;6.15;;;;;;;-2.67;100.00;96662.16;5089169;28;20020;-64
2023/12/27 06:09:49;;;;;;;8.18;7.00;;;;;;;-2.69;100.00;96668.22;5095240;28;20028;-65
2023/12/27 06:12:15;;;;;;;13.10;7.28;;;;;;;-2.72;100.00;96666.59;5091675;28;20066;-65
2023/12/27 06:14:40;;;;;;;7.97;6.10;;;;;;;-2.72;100.00;96674.31;5092181;28;20036;-64
2023/12/27 06:17:05;;;;;;;9.02;7.30;;;;;;;-2.76;100.00;96675.28;5089929;28;20039;-65
2023/12/27 06:19:31;;;;;;;8.68;7.60;;;;;;;-2.81;100.00;96672.81;5088652;28;20068;-64
2023/12/27 06:21:57;;;;;;;8.05;6.80;;;;;;;-2.81;100.00;96670.22;5089264;28;20024;-65
2023/12/27 06:24:23;;;;;;;11.80;9.63;;;;;;;-2.81;100.00;96670.22;5092012;28;20024;-64
2023/12/27 06:26:48;;;;;;;17.70;11.73;;;;;;;-2.83;100.00;96677.16;5089010;28;20087;-64
2023/12/27 06:29:14;;;;;;;15.32;11.98;;;;;;;-2.78;100.00;96669.28;5080793;28;20012;-65
2023/12/27 06:31:39;;;;;;;15.70;11.73;;;;;;;-2.72;100.00;96673.47;5091700;28;20088;-65
2023/12/27 06:34:05;;;;;;;15.65;11.75;;;;;;;-2.73;100.00;96672.63;5094746;28;20020;-64
2023/12/27 06:36:30;;;;;;;21.67;12.75;;;;;;;-2.74;100.00;96678.66;5089730;28;20024;-65
2023/12/27 06:38:56;;;;;;;16.77;12.75;;;;;;;-2.78;100.00;96670.16;5086487;28;20038;-64
2023/12/27 06:41:21;;;;;;;15.50;12.45;;;;;;;-2.76;100.00;96677.88;5090783;28;20762;-64
2023/12/27 06:43:46;;;;;;;17.65;11.40;;;;;;;-2.70;100.00;96674.25;5090623;28;20107;-65
2023/12/27 06:46:12;;;;;;;13.52;10.90;;;;;;;-2.67;100.00;96687.09;5092419;28;20051;-65
2023/12/27 06:48:39;;;;;;;18.23;12.55;;;;;;;-2.65;100.00;96675.03;5085931;28;20030;-64
2023/12/27 06:51:06;;;;;;;15.88;11.60;;;;;;;-2.74;100.00;96669.19;5090321;28;20028;-64
2023/12/27 06:53:35;;;;;;;15.13;12.27;;;;;;;-2.73;100.00;96680.38;5087654;28;20069;-65
2023/12/27 06:56:01;;;;;;;14.95;10.90;;;;;;;-2.77;100.00;96686.44;5090534;28;20052;-65
2023/12/27 06:58:26;;;;;;;15.30;11.60;;;;;;;-2.74;100.00;96694.13;5087894;28;20047;-65
2023/12/27 07:00:52;;;;;;;14.48;11.13;;;;;;;-2.78;100.00;96689.91;5094017;28;20012;-64
2023/12/27 07:03:17;;;;;;;15.23;12.57;;;;;;;-2.78;100.00;96684.75;5090793;28;20038;-65
2023/12/27 07:05:42;;;;;;;14.23;11.93;;;;;;;-2.77;100.00;96684.72;5087515;28;20020;-64
2023/12/27 07:08:08;;;;;;;17.52;11.88;;;;;;;-2.78;100.00;96690.78;5089179;28;20134;-64
2023/12/27 07:10:33;;;;;;;12.00;10.77;;;;;;;-2.77;100.00;96686.44;5086576;28;20020;-64
2023/12/27 07:12:58;;;;;;;14.85;11.35;;;;;;;-2.74;100.00;96696.72;5091333;28;20067;-65
2023/12/27 07:15:24;;;;;;;13.27;10.57;;;;;;;-2.72;100.00;96692.38;5092228;28;20031;-64
2023/12/27 07:17:49;;;;;;;12.70;10.38;;;;;;;-2.72;100.00;96692.38;5092267;28;20090;-65
2023/12/27 07:20:15;;;;;;;14.20;11.68;;;;;;;-2.74;100.00;96689.81;5087171;28;20033;-65
2023/12/27 07:22:40;;;;;;;15.82;12.48;;;;;;;-2.74;100.00;96681.25;5089035;28;20029;-64
2023/12/27 07:25:06;;;;;;;25.23;13.85;;;;;;;-2.75;100.00;96693.28;5091523;28;20032;-65
2023/12/27 07:27:31;;;;;;;15.57;13.30;;;;;;;-2.73;100.00;96690.69;5092211;28;20063;-65
2023/12/27 07:29:57;;;;;;;15.43;12.50;;;;;;;-2.74;100.00;96688.97;5089021;28;20036;-65
2023/12/27 07:32:22;;;;;;;14.25;12.25;;;;;;;-2.75;100.00;96695.84;5082927;28;20058;-65
2023/12/27 07:34:48;;;;;;;14.02;11.93;;;;;;;-2.73;100.00;96693.25;5092640;28;20073;-65
2023/12/27 07:37:13;;;;;;;12.65;11.02;;;;;;;-2.74;100.00;96694.97;5092516;28;20023;-64
2023/12/27 07:39:40;;;;;;;15.55;11.02;;;;;;;-2.70;100.00;96685.44;5086485;28;20058;-65
2023/12/27 07:42:05;;;;;;;15.43;13.60;;;;;;;-2.62;100.00;96687.84;5091739;28;20032;-65
2023/12/27 07:44:30;;;;;;;15.10;13.50;;;;;;;-2.59;100.00;96695.50;5085407;28;20038;-65
2023/12/27 07:46:56;;;;;;;14.05;11.75;;;;;;;-2.57;100.00;96698.88;5090334;28;20024;-65
2023/12/27 07:49:23;;;;;;;14.57;12.60;;;;;;;-2.56;100.00;96702.28;5089841;28;20031;-65
2023/12/27 07:51:49;;;;;;;13.85;11.95;;;;;;;-2.54;100.00;96716.00;5087668;28;20073;-65
2023/12/27 07:54:15;;;;;;;13.15;11.35;;;;;;;-2.53;100.00;96715.97;5089070;28;20110;-65
2023/12/27 07:56:40;;;;;;;12.85;11.30;;;;;;;-2.53;100.00;96717.72;5088174;28;20043;-65
2023/12/27 07:59:06;;;;;;;16.33;13.30;;;;;;;-2.52;100.00;96717.66;5083191;28;20020;-65
2023/12/27 08:01:31;;;;;;;14.43;12.82;;;;;;;-2.45;100.00;96723.53;5092083;28;20020;-65
2023/12/27 08:03:58;;;;;;;17.55;14.27;;;;;;;-2.43;100.00;96719.19;5089672;28;20032;-65
2023/12/27 08:06:24;;;;;;;16.70;11.98;;;;;;;-2.41;100.00;96721.75;5091241;28;20039;-65
2023/12/27 08:08:49;;;;;;;13.65;11.98;;;;;;;-2.42;100.00;96720.88;5091107;28;20024;-64
2023/12/27 08:11:15;;;;;;;14.10;11.55;;;;;;;-2.41;100.00;96724.31;5087263;28;20024;-65
2023/12/27 08:13:40;;;;;;;14.38;12.13;;;;;;;-2.39;100.00;96728.53;5081178;28;20077;-64
2023/12/27 08:16:08;;;;;;;18.55;12.48;;;;;;;-2.35;100.00;96717.25;5085358;28;20036;-66
2023/12/27 08:18:33;;;;;;;15.20;12.43;;;;;;;-2.31;100.00;96724.06;5086776;28;20024;-63
2023/12/27 08:20:59;;;;;;;19.48;13.15;;;;;;;-2.25;100.00;96724.78;5090717;28;20031;-65
2023/12/27 08:23:24;;;;;;;13.32;11.85;;;;;;;-2.19;100.00;96725.50;5089856;28;20035;-65
2023/12/27 08:25:49;;;;;;;15.38;13.82;;;;;;;-2.20;100.00;96728.09;5087249;28;20027;-67
2023/12/27 08:28:16;;;;;;;21.50;15.55;;;;;;;-2.18;100.00;96731.47;5089687;28;20418;-64
2023/12/27 08:30:41;;;;;;;29.70;21.42;;;;;;;-2.11;100.00;96724.44;5086090;28;20028;-64
2023/12/27 08:33:07;;;;;;;42.60;26.95;;;;;;;-2.08;100.00;96716.63;5084673;28;20024;-64
2023/12/27 08:35:36;;;;;;;57.30;33.83;;;;;;;-2.07;100.00;96716.59;5091188;28;20050;-64
2023/12/27 08:38:03;;;;;;;54.28;30.67;;;;;;;-2.05;100.00;96713.94;5088169;28;20035;-64
2023/12/27 08:40:28;;;;;;;24.13;16.80;;;;;;;-1.97;100.00;96716.34;5080361;28;20030;-64
2023/12/27 08:42:54;;;;;;;36.13;19.20;;;;;;;-1.94;100.00;96713.66;5093684;28;20032;-64
2023/12/27 08:45:20;;;;;;;49.22;30.17;;;;;;;-1.96;100.00;96712.88;5094672;28;20035;-64
2023/12/27 08:47:46;;;;;;;58.00;31.80;;;;;;;-1.98;100.00;96710.34;5089194;28;20484;-63
2023/12/27 08:50:12;;;;;;;56.17;38.55;;;;;;;-1.95;100.00;96709.41;5091996;28;20423;-65
2023/12/27 08:52:38;;;;;;;48.45;30.85;;;;;;;-1.92;100.00;96706.72;5090180;28;20077;-64
2023/12/27 08:55:06;;;;;;;45.50;26.33;;;;;;;-1.92;100.00;96704.16;5095044;28;20040;-63
2023/12/27 08:57:32;;;;;;;45.42;25.10;;;;;;;-1.90;100.00;96700.66;5083851;28;20040;-63
2023/12/27 08:59:57;;;;;;;43.03;25.58;;;;;;;-1.86;100.00;96704.00;5090307;28;20024;-63
2023/12/27 09:02:23;;;;;;;54.63;27.75;;;;;;;-1.88;100.00;96704.03;5085014;28;20452;-63
2023/12/27 09:04:49;;;;;;;55.10;32.65;;;;;;;-1.93;100.00;96707.63;5094348;28;20035;-64
2023/12/27 09:07:14;;;;;;;65.00;35.55;;;;;;;-1.90;100.00;96716.13;5093474;28;20028;-64
2023/12/27 09:09:40;;;;;;;55.72;34.60;;;;;;;-1.86;100.00;96714.34;5096247;28;20414;-66
2023/12/27 09:12:06;;;;;;;62.13;32.65;;;;;;;-1.80;100.00;96713.31;5088820;28;20031;-65
2023/12/27 09:14:31;;;;;;;60.38;34.88;;;;;;;-1.71;100.00;96718.25;5091056;28;20108;-65
2023/12/27 09:16:56;;;;;;;61.05;36.03;;;;;;;-1.70;100.00;96719.06;5083869;28;20161;-64
2023/12/27 09:19:22;;;;;;;54.00;32.83;;;;;;;-1.70;100.00;96716.50;5087784;28;20052;-64
2023/12/27 09:21:48;;;;;;;60.45;36.35;;;;;;;-1.70;100.00;96726.81;5088326;28;20023;-65
2023/12/27 09:24:13;;;;;;;60.72;36.80;;;;;;;-1.71;100.00;96714.78;5092309;28;20474;-65
2023/12/27 09:26:39;;;;;;;57.58;34.22;;;;;;;-1.69;100.00;96707.84;5086427;28;20060;-65
2023/12/27 09:29:05;;;;;;;49.47;33.13;;;;;;;-1.70;100.00;96703.56;5088378;28;20134;-65
2023/12/27 09:31:31;;;;;;;51.17;33.20;;;;;;;-1.74;100.00;96708.00;5084938;28;20411;-64
2023/12/27 09:33:59;;;;;;;51.40;32.55;;;;;;;-1.76;100.00;96702.03;5093462;28;20031;-63
2023/12/27 09:36:25;;;;;;;55.30;32.45;;;;;;;-1.77;100.00;96708.06;5089426;28;20055;-64
2023/12/27 09:38:50;;;;;;;52.63;31.50;;;;;;;-1.68;100.00;96710.41;5089831;28;20032;-63
2023/12/27 09:41:16;;;;;;;67.78;37.20;;;;;;;-1.34;100.00;96712.03;5087736;28;20031;-64
2023/12/27 09:43:42;;;;;;;63.22;36.10;;;;;;;-0.86;100.00;96709.81;5091696;28;20394;-64
2023/12/27 09:46:09;;;;;;;41.35;26.83;;;;;;;-0.33;100.00;96706.44;5092286;28;20028;-64
2023/12/27 09:48:36;;;;;;;41.38;27.10;;;;;;;0.23;100.00;96701.13;5089877;28;20024;-63
2023/12/27 09:51:04;;;;;;;39.92;27.20;;;;;;;0.75;100.00;96705.34;5089565;28;20493;-65
2023/12/27 09:53:29;;;;;;;34.50;22.50;;;;;;;1.21;100.00;96707.94;5094507;28;20074;-64
2023/12/27 09:55:56;;;;;;;31.02;21.38;;;;;;;1.56;100.00;96701.38;5086733;28;20036;-68
2023/12/27 09:58:27;;;;;;;25.85;17.63;;;;;;;1.90;100.00;96709.53;5095871;28;20484;-67
2023/12/27 10:01:01;;;;;;;28.17;14.85;;;;;;;2.18;100.00;96702.31;5095780;28;20103;-65
2023/12/27 10:03:35;;;;;;;21.88;18.33;;;;;;;2.47;100.00;96695.88;5085687;28;20036;-67
2023/12/27 10:06:33;;;;;;;19.30;15.93;;;;;;;2.82;100.00;96682.22;5090135;28;20020;-65
2023/12/27 10:08:58;;;;;;;22.20;17.35;;;;;;;3.14;100.00;96685.94;5088759;28;20028;-65
2023/12/27 10:11:25;;;;;;;19.02;17.02;;;;;;;3.41;100.00;96671.69;5085756;28;20035;-65
2023/12/27 10:13:51;;;;;;;23.27;17.60;;;;;;;3.73;100.00;96680.56;5091262;28;20020;-64
2023/12/27 10:16:17;;;;;;;17.73;14.43;;;;;;;4.02;100.00;96667.00;5087137;28;20040;-65
2023/12/27 10:18:46;;;;;;;41.88;32.47;;;;;;;4.28;100.00;96646.56;5086354;28;20036;-66
2023/12/27 10:21:13;;;;;;;50.80;44.92;;;;;;;4.49;100.00;96639.38;5092242;28;20031;-65
2023/12/27 10:23:38;;;;;;;35.63;30.33;;;;;;;4.64;100.00;96616.03;5085793;28;20031;-65
2023/12/27 10:26:05;;;;;;;26.02;23.30;;;;;;;4.84;100.00;96612.31;5086699;28;20039;-66
2023/12/27 10:28:31;;;;;;;20.15;18.10;;;;;;;5.02;100.00;96600.88;5083688;28;20049;-65
2023/12/27 10:30:56;;;;;;;15.43;12.10;;;;;;;5.22;100.00;96595.50;5095087;28;20362;-65
2023/12/27 10:33:22;;;;;;;10.65;9.55;;;;;;;5.33;100.00;96581.81;5091426;28;20036;-65
2023/12/27 10:35:47;;;;;;;10.48;9.35;;;;;;;5.47;100.00;96571.41;5086238;28;20036;-64
2023/12/27 10:38:13;;;;;;;8.00;7.30;;;;;;;5.61;100.00;96567.16;5093858;28;20020;-65
2023/12/27 10:40:41;;;;;;;18.73;17.05;;;;;;;5.80;100.00;96564.31;5088854;28;20028;-65
2023/12/27 10:43:08;;;;;;;6.70;6.00;;;;;;;5.99;100.00;96559.66;5090630;28;20028;-65
2023/12/27 10:45:34;;;;;;;7.55;6.95;;;;;;;6.20;100.00;96550.66;5087299;28;20484;-65
2023/12/27 10:48:01;;;;;;;16.98;15.50;;;;;;;6.32;100.00;96544.66;5093467;28;20055;-65
2023/12/27 10:50:28;;;;;;;14.60;13.48;;;;;;;6.43;100.00;96544.00;5086546;28;20040;-65
2023/12/27 10:53:08;;;;;;;18.08;16.67;;;;;;;6.48;100.00;96536.69;5081626;28;20033;-65
2023/12/27 10:55:35;;;;;;;7.75;7.05;;;;;;;6.48;100.00;96525.41;5086015;28;20032;-65
2023/12/27 10:58:02;;;;;;;10.02;9.13;;;;;;;6.49;100.00;96512.22;5083980;28;20479;-65
2023/12/27 11:00:28;;;;;;;9.05;8.07;;;;;;;6.68;100.00;96516.28;5089320;28;20028;-67
2023/12/27 11:02:55;;;;;;;7.43;5.70;;;;;;;6.86;100.00;96517.72;5087987;28;20027;-66
2023/12/27 11:05:22;;;;;;;9.77;8.60;;;;;;;7.09;100.00;96499.69;5090425;28;20047;-67
2023/12/27 11:07:50;;;;;;;4.00;3.70;;;;;;;7.34;100.00;96476.28;5089722;28;20097;-66
2023/12/27 11:10:16;;;;;;;4.60;4.20;;;;;;;7.59;100.00;96480.69;5082258;28;20040;-66